Time;durP1;ratioP1;P1;durP2;ratioP2;P2;SDS_P1;SDS_P2;PMS_P1;PMS_P2;Temp;Humidity;BMP_temperature;BMP_pressure;BME280_temperature;BME280_humidity;BME280_pressure;Samples;Min_cycle;Max_cycle;Signal;HPM_P1;HPM_P2
2021/06/15 05:13:42;;;;;;;5.78;1.92;;;;;;;36.05;33.32;100454.88;1747015;81;21211;-67
2021/06/15 05:20:26;;;;;;;2.15;1.60;;;;;;;36.89;31.90;100456.27;1747751;82;21569;-67
2021/06/15 05:27:10;;;;;;;3.45;1.80;;;;;;;37.57;30.71;100432.35;1747903;82;21303;-68
2021/06/15 05:29:43;;;;;;;2.95;1.50;;;;;;;37.99;30.07;100443.91;1762766;81;21439;-69
2021/06/15 05:32:17;;;;;;;5.80;1.90;;;;;;;38.19;29.35;100434.59;1748079;82;21172;-66
2021/06/15 05:34:50;;;;;;;5.97;1.70;;;;;;;38.43;29.13;100441.08;1762932;81;21876;-65
2021/06/15 05:37:24;;;;;;;3.75;1.47;;;;;;;38.77;28.82;100442.59;1747838;82;21369;-65
2021/06/15 05:39:57;;;;;;;2.83;1.50;;;;;;;39.00;28.41;100434.50;1735459;81;22036;-68
2021/06/15 05:42:30;;;;;;;10.98;2.15;;;;;;;39.16;27.76;100432.70;1747882;82;21278;-66
2021/06/15 05:45:03;;;;;;;4.42;1.60;;;;;;;39.22;27.82;100432.20;1762909;81;21213;-69
2021/06/15 05:47:37;;;;;;;8.80;1.92;;;;;;;39.34;27.78;100435.70;1747847;82;21175;-65
2021/06/15 05:50:11;;;;;;;2.50;1.10;;;;;;;39.46;27.39;100431.72;1762955;81;21221;-64
2021/06/15 05:52:47;;;;;;;7.20;1.45;;;;;;;39.50;27.15;100434.88;1747937;82;21286;-67
2021/06/15 05:55:20;;;;;;;8.33;1.72;;;;;;;39.63;26.93;100433.91;1736367;81;21240;-66
2021/06/15 05:57:54;;;;;;;2.10;1.27;;;;;;;39.68;26.58;100434.30;1747931;82;21965;-69
2021/06/15 06:00:28;;;;;;;2.98;1.17;;;;;;;39.57;26.22;100433.83;1763124;81;21359;-69
2021/06/15 06:03:01;;;;;;;1.80;1.17;;;;;;;39.27;26.81;100436.16;1746682;81;21513;-67
2021/06/15 06:08:28;;;;;;;7.70;1.20;;;;;;;39.35;27.37;100434.00;1746648;82;21172;-63
2021/06/15 06:11:01;;;;;;;10.70;1.27;;;;;;;39.63;26.20;100427.63;1733890;82;21611;-65
2021/06/15 06:13:35;;;;;;;3.52;1.10;;;;;;;39.68;26.33;100425.53;1747828;82;21172;-67
2021/06/15 06:16:09;;;;;;;5.30;1.30;;;;;;;39.73;26.50;100426.48;1734086;82;21299;-66
2021/06/15 06:18:42;;;;;;;4.70;1.45;;;;;;;39.85;26.49;100427.98;1747760;82;21295;-67
2021/06/15 06:25:32;;;;;;;1.35;0.93;;;;;;;39.90;25.84;100423.14;1746318;82;21155;-66
2021/06/15 06:28:02;;;;;;;1.32;0.85;;;;;;;40.06;25.96;100417.95;1714903;83;21306;-70
2021/06/15 06:30:36;;;;;;;6.72;1.10;;;;;;;40.07;25.77;100414.09;1732151;82;22163;-67
2021/06/15 06:33:09;;;;;;;7.20;1.30;;;;;;;40.14;25.52;100412.45;1747280;82;21294;-66
2021/06/15 06:35:42;;;;;;;10.13;1.20;;;;;;;40.21;24.94;100414.11;1732164;82;21371;-66
2021/06/15 06:38:16;;;;;;;5.33;1.12;;;;;;;40.22;25.12;100414.92;1747380;82;21184;-67
2021/06/15 06:40:50;;;;;;;7.17;1.10;;;;;;;40.27;24.22;100405.92;1732124;82;21358;-70
2021/06/15 06:43:23;;;;;;;5.25;0.98;;;;;;;40.29;24.10;100405.02;1747251;82;21188;-66
2021/06/15 06:45:56;;;;;;;2.10;0.88;;;;;;;40.33;23.41;100405.99;1732173;82;21642;-66
2021/06/15 06:48:31;;;;;;;8.88;0.93;;;;;;;40.31;22.78;100405.52;1747287;82;22000;-70
2021/06/15 06:51:04;;;;;;;1.80;0.80;;;;;;;40.55;22.68;100410.42;1732229;82;21312;-66
2021/06/15 06:53:37;;;;;;;1.65;0.75;;;;;;;40.73;22.67;100401.50;1747283;82;21491;-68
2021/06/15 07:00:21;;;;;;;5.33;0.95;;;;;;;40.95;20.98;100408.09;1746615;80;21294;-71
2021/06/15 07:07:08;;;;;;;5.50;1.02;;;;;;;41.13;20.93;100412.30;1747251;82;22118;-71
2021/06/15 07:09:42;;;;;;;0.50;0.50;;;;;;;40.92;20.92;100414.23;1732391;82;21331;-68
2021/06/15 07:12:16;;;;;;;1.75;0.80;;;;;;;40.83;20.41;100414.28;1766866;80;21174;-72
2021/06/15 07:14:49;;;;;;;2.60;0.80;;;;;;;40.67;20.51;100404.22;1768302;81;21559;-68
2021/06/15 07:17:22;;;;;;;2.62;0.70;;;;;;;40.75;20.90;100401.97;1768466;81;22003;-71
2021/06/15 07:19:55;;;;;;;2.87;0.60;;;;;;;40.79;20.54;100402.93;1768047;81;21292;-72
2021/06/15 07:22:28;;;;;;;4.00;0.80;;;;;;;40.66;20.96;100399.85;1768297;81;21181;-68
2021/06/15 07:25:04;;;;;;;7.42;0.90;;;;;;;40.43;20.91;100393.03;1768338;81;21174;-70
2021/06/15 07:27:37;;;;;;;2.45;0.60;;;;;;;40.15;21.82;100392.09;1768241;81;21177;-73
2021/06/15 07:30:10;;;;;;;1.42;0.75;;;;;;;40.17;21.87;100398.05;1768027;80;21166;-72
2021/06/15 07:32:43;;;;;;;2.58;0.80;;;;;;;40.15;21.83;100389.36;1768330;81;22229;-72
2021/06/15 07:35:16;;;;;;;1.87;0.75;;;;;;;40.16;21.85;100393.72;1768559;81;21177;-66
2021/06/15 07:37:49;;;;;;;2.35;0.60;;;;;;;40.20;21.58;100386.44;1768261;81;21150;-68
2021/06/15 07:40:23;;;;;;;1.40;0.80;;;;;;;40.13;21.54;100388.89;1767990;81;21154;-71
2021/06/15 07:47:07;;;;;;;1.92;0.70;;;;;;;40.07;21.66;100388.84;1767110;81;21380;-67
2021/06/15 07:49:40;;;;;;;11.33;1.20;;;;;;;39.98;22.03;100385.87;1768176;81;21295;-69
2021/06/15 07:52:14;;;;;;;6.45;0.88;;;;;;;39.89;21.69;100383.14;1766606;81;21385;-61
2021/06/15 07:58:57;;;;;;;1.37;0.70;;;;;;;39.25;22.50;100393.23;1767976;81;22021;-66
2021/06/15 08:01:30;;;;;;;2.80;0.78;;;;;;;39.27;22.70;100383.30;1767239;81;21378;-63
2021/06/15 08:04:03;;;;;;;3.70;0.80;;;;;;;39.39;22.16;100384.27;1768129;81;21228;-66
2021/06/15 08:06:36;;;;;;;1.50;0.93;;;;;;;39.34;22.32;100383.06;1767656;80;21581;-66
2021/06/15 08:09:10;;;;;;;1.35;0.80;;;;;;;39.30;22.17;100383.48;1768204;81;22077;-63
2021/06/15 08:11:44;;;;;;;2.30;0.80;;;;;;;39.29;21.76;100383.23;1773009;80;22010;-63
2021/06/15 08:14:19;;;;;;;7.30;1.02;;;;;;;38.87;22.87;100376.61;1781770;80;21346;-65
2021/06/15 08:16:53;;;;;;;5.72;1.00;;;;;;;38.53;23.32;100375.14;1781348;80;22105;-63
2021/06/15 08:19:27;;;;;;;3.30;0.80;;;;;;;38.57;23.47;100375.33;1781964;80;21173;-70
2021/06/15 08:22:01;;;;;;;2.72;0.80;;;;;;;38.54;23.06;100381.42;1780816;80;21358;-67
2021/06/15 08:24:33;;;;;;;3.02;0.62;;;;;;;38.47;23.14;100377.80;1781825;80;21193;-64
2021/06/15 08:27:07;;;;;;;7.87;1.37;;;;;;;38.27;23.35;100375.05;1781465;79;21316;-61
2021/06/15 08:29:40;;;;;;;1.40;0.70;;;;;;;37.94;23.50;100366.14;1782028;80;21250;-68
2021/06/15 08:32:13;;;;;;;5.45;0.90;;;;;;;37.95;24.36;100369.95;1780770;80;21189;-66
2021/06/15 08:34:47;;;;;;;4.60;0.80;;;;;;;38.15;23.42;100374.03;1781859;80;22116;-71
2021/06/15 08:41:29;;;;;;;5.75;0.90;;;;;;;37.77;23.90;100369.56;1781414;79;21467;-66
2021/06/15 08:44:06;;;;;;;2.20;0.72;;;;;;;37.48;24.21;100365.94;1781593;80;21189;-63
2021/06/15 08:46:39;;;;;;;6.15;0.90;;;;;;;37.44;24.51;100364.95;1781697;80;21382;-63
2021/06/15 08:49:13;;;;;;;10.80;1.05;;;;;;;37.25;24.01;100368.95;1781663;80;21303;-63
2021/06/15 08:51:47;;;;;;;4.75;1.00;;;;;;;36.82;24.71;100364.47;1781227;79;22131;-61
2021/06/15 08:54:22;;;;;;;4.97;1.00;;;;;;;36.17;25.90;100363.34;1750979;82;21204;-63
2021/06/15 08:56:56;;;;;;;3.30;0.75;;;;;;;35.89;26.43;100360.86;1750870;82;21263;-67
2021/06/15 08:59:32;;;;;;;0.80;0.80;;;;;;;35.86;26.12;100358.18;1751010;82;21256;-67
2021/06/15 09:02:09;;;;;;;1.75;0.80;;;;;;;36.13;26.36;100350.62;1750569;82;21180;-65
2021/06/15 09:04:45;;;;;;;1.45;0.80;;;;;;;36.30;26.65;100355.70;1751038;82;21625;-66
2021/06/15 09:07:18;;;;;;;2.10;0.95;;;;;;;36.27;26.12;100354.15;1750845;82;21243;-67
2021/06/15 09:09:52;;;;;;;4.00;0.90;;;;;;;36.17;26.12;100354.34;1751124;82;21605;-71
2021/06/15 09:12:26;;;;;;;1.90;0.75;;;;;;;36.19;26.19;100352.94;1750308;82;21235;-70
2021/06/15 09:14:59;;;;;;;1.65;0.93;;;;;;;36.27;26.27;100351.42;1751099;82;21204;-71
2021/06/15 09:17:36;;;;;;;;;;;;;;;36.17;26.69;100361.16;1753476;82;21223;-73
2021/06/15 09:24:23;;;;;;;2.92;1.12;;;;;;;35.74;26.98;100357.30;1749716;82;21299;-69
2021/06/15 09:27:10;;;;;;;1.87;0.70;;;;;;;35.62;27.13;100329.73;1751162;82;21232;-68
2021/06/15 09:33:54;;;;;;;0.95;0.70;;;;;;;34.98;27.93;100334.55;1749951;82;21173;-65
2021/06/15 09:36:29;;;;;;;2.22;1.02;;;;;;;34.51;28.64;100335.44;1749550;81;21600;-69
2021/06/15 09:39:03;;;;;;;4.75;1.00;;;;;;;34.35;29.02;100340.81;1750155;82;21327;-66
2021/06/15 09:41:42;;;;;;;6.67;1.35;;;;;;;34.04;29.00;100334.66;1750519;80;22072;-69
2021/06/15 09:44:22;;;;;;;1.05;0.70;;;;;;;33.74;29.62;100333.05;1749836;82;21318;-66
2021/06/15 09:47:04;;;;;;;3.30;1.10;;;;;;;33.61;30.20;100329.63;1751029;82;21235;-71
2021/06/15 09:49:44;;;;;;;1.35;0.90;;;;;;;33.55;29.71;100327.53;1749610;82;22024;-69
2021/06/15 09:52:32;;;;;;;1.87;0.80;;;;;;;33.31;30.45;100325.80;1750821;82;21215;-68
2021/06/15 09:55:09;;;;;;;2.42;0.90;;;;;;;33.27;30.50;100326.12;1751187;82;21175;-69
2021/06/15 09:57:45;;;;;;;2.15;1.10;;;;;;;33.24;30.08;100322.06;1750996;82;21161;-64
2021/06/15 10:04:23;;;;;;;;;;;;;;;33.00;30.58;100311.09;1752245;82;22010;-62
2021/06/15 10:06:58;;;;;;;1.92;0.70;;;;;;;32.97;31.73;100310.83;1750980;82;20204;-67
2021/06/15 10:13:41;;;;;;;3.52;1.00;;;;;;;32.95;31.85;100306.23;1742366;81;22087;-64
2021/06/15 10:16:15;;;;;;;4.17;0.80;;;;;;;32.61;32.08;100298.05;1729475;83;21177;-65
2021/06/15 10:18:49;;;;;;;8.38;1.35;;;;;;;32.40;32.45;100300.03;1728794;83;21327;-67
2021/06/15 10:21:22;;;;;;;2.22;1.05;;;;;;;32.20;33.23;100297.93;1729495;83;21397;-65
2021/06/15 10:23:56;;;;;;;2.35;0.90;;;;;;;31.95;33.41;100299.63;1728336;83;21189;-69
2021/06/15 10:26:29;;;;;;;2.85;0.98;;;;;;;31.81;34.38;100298.56;1729564;83;21200;-62
2021/06/15 10:29:02;;;;;;;5.50;1.37;;;;;;;31.70;34.47;100301.56;1728980;83;22070;-68
2021/06/15 10:31:35;;;;;;;2.72;0.93;;;;;;;31.56;34.31;100291.85;1729431;83;22041;-66
2021/06/15 10:34:08;;;;;;;;;;;;;;;31.43;34.35;100288.33;1730893;83;21212;-68
2021/06/15 10:36:44;;;;;;;1.47;0.93;;;;;;;31.37;33.39;100294.00;1729240;83;20352;-66
2021/06/15 10:39:41;;;;;;;2.05;0.90;;;;;;;31.28;33.53;100290.50;1728752;83;22098;-65
2021/06/15 10:42:18;;;;;;;1.35;0.95;;;;;;;31.29;33.63;100284.53;1728042;83;21192;-65
2021/06/15 10:45:21;;;;;;;3.30;0.90;;;;;;;31.41;33.46;100291.04;1728199;83;22011;-67
2021/06/15 10:48:15;;;;;;;5.03;1.20;;;;;;;31.41;33.71;100285.06;1729477;83;21196;-67
2021/06/15 10:50:51;;;;;;;2.17;0.90;;;;;;;31.39;33.76;100281.00;1726105;83;21181;-63
2021/06/15 10:53:41;;;;;;;4.03;0.80;;;;;;;31.37;34.75;100281.28;1729215;83;21200;-65
2021/06/15 10:56:16;;;;;;;2.27;0.98;;;;;;;31.23;35.16;100278.33;1729426;83;22093;-68
2021/06/15 10:59:07;;;;;;;2.70;0.80;;;;;;;31.09;35.14;100272.38;1729618;83;21452;-69
2021/06/15 11:01:39;;;;;;;1.50;0.80;;;;;;;31.09;35.78;100266.97;1729636;83;21197;-69
2021/06/15 11:04:14;;;;;;;7.40;1.22;;;;;;;31.22;35.33;100267.76;1728828;83;21213;-68
2021/06/15 11:06:56;;;;;;;2.67;0.70;;;;;;;31.24;34.97;100259.64;1729456;83;22118;-71
2021/06/15 11:09:33;;;;;;;2.42;0.93;;;;;;;31.25;35.10;100250.46;1729067;83;21204;-69
2021/06/15 11:12:11;;;;;;;3.10;0.90;;;;;;;31.27;35.90;100248.83;1729519;83;22173;-69
2021/06/15 11:15:14;;;;;;;0.98;0.80;;;;;;;31.23;35.31;100250.46;1728216;83;22110;-68
2021/06/15 11:17:51;;;;;;;4.43;1.00;;;;;;;31.03;34.93;100243.16;1740177;82;21212;-68
2021/06/15 11:20:35;;;;;;;2.37;1.10;;;;;;;30.78;35.24;100247.17;1742398;82;21599;-68
2021/06/15 11:23:25;;;;;;;2.75;0.90;;;;;;;30.58;35.26;100241.20;1741585;82;21204;-62
2021/06/15 11:26:14;;;;;;;1.57;0.70;;;;;;;30.47;36.40;100242.27;1683360;82;21223;-64
2021/06/15 11:28:59;;;;;;;2.20;0.88;;;;;;;30.46;35.87;100241.16;1741827;82;21342;-66
2021/06/15 11:31:34;;;;;;;1.55;0.90;;;;;;;30.38;36.13;100241.13;1716694;82;21609;-66
2021/06/15 11:34:16;;;;;;;4.70;1.00;;;;;;;30.33;37.07;100232.19;1742790;82;21508;-65
2021/06/15 11:36:55;;;;;;;3.02;1.00;;;;;;;30.24;37.42;100232.41;1743191;82;21192;-68
2021/06/15 11:39:32;;;;;;;1.77;0.80;;;;;;;30.07;37.39;100231.83;1743346;82;21533;-66
2021/06/15 11:42:27;;;;;;;1.30;1.00;;;;;;;29.93;37.76;100224.73;1743280;82;21177;-69
2021/06/15 11:45:09;;;;;;;2.87;0.90;;;;;;;29.88;37.64;100221.48;1742456;82;21322;-65
2021/06/15 11:47:56;;;;;;;1.55;0.95;;;;;;;29.86;37.86;100211.48;1743583;82;21283;-67
2021/06/15 11:50:37;;;;;;;9.85;1.10;;;;;;;29.82;37.37;100213.63;1739997;82;22109;-71
2021/06/15 11:53:20;;;;;;;3.25;1.00;;;;;;;29.77;36.83;100204.98;1743124;82;21310;-65
2021/06/15 11:55:59;;;;;;;1.98;1.72;;;;;;;29.72;36.59;100205.45;1741958;82;21335;-62
2021/06/15 11:58:42;;;;;;;5.87;1.30;;;;;;;29.64;35.53;100204.62;1743206;82;21598;-65
2021/06/15 12:01:14;;;;;;;1.42;1.10;;;;;;;29.65;36.51;100204.34;1742571;82;22011;-66
2021/06/15 12:03:49;;;;;;;6.53;4.15;;;;;;;29.70;36.46;100200.33;1743189;82;21208;-62
2021/06/15 12:06:23;;;;;;;1.87;1.30;;;;;;;29.78;37.11;100209.28;1742211;82;21322;-62
2021/06/15 12:08:58;;;;;;;5.00;1.10;;;;;;;29.86;37.31;100202.05;1743316;82;21855;-69
2021/06/15 12:11:33;;;;;;;2.60;1.00;;;;;;;29.88;37.13;100203.94;1697481;82;21281;-69
2021/06/15 12:14:07;;;;;;;1.82;1.27;;;;;;;29.86;37.74;100202.05;1705308;84;21310;-70
2021/06/15 12:16:40;;;;;;;2.47;1.35;;;;;;;29.82;38.37;100194.73;1704406;82;21372;-70
2021/06/15 12:19:13;;;;;;;1.52;1.00;;;;;;;29.81;38.20;100195.80;1675678;85;22146;-67
2021/06/15 12:21:47;;;;;;;7.67;1.62;;;;;;;29.91;38.38;100189.92;1701388;84;22105;-68
2021/06/15 12:24:19;;;;;;;;;;;;;;;30.03;37.88;100191.04;1712342;84;22038;-67
2021/06/15 12:26:58;;;;;;;5.00;1.22;;;;;;;30.16;38.18;100197.84;1677187;85;20292;-67
2021/06/15 12:29:27;;;;;;;5.28;1.10;;;;;;;30.23;37.23;100202.45;1685703;85;21218;-69
2021/06/15 12:32:01;;;;;;;17.30;1.57;;;;;;;30.25;37.57;100211.09;1709006;84;21663;-67
2021/06/15 12:34:34;;;;;;;244.03;102.55;;;;;;;30.11;38.38;100208.09;1681315;85;21195;-71
2021/06/15 12:37:08;;;;;;;65.15;32.95;;;;;;;29.85;38.96;100203.11;1693364;84;21333;-69
2021/06/15 12:39:41;;;;;;;10.20;2.90;;;;;;;29.61;39.44;100201.09;1694329;84;21313;-68
2021/06/15 12:42:15;;;;;;;5.28;1.72;;;;;;;29.37;39.79;100202.55;1693285;84;21327;-64
2021/06/15 12:44:52;;;;;;;6.20;0.93;;;;;;;29.17;40.54;100204.01;1701930;84;21330;-68
2021/06/15 12:47:24;;;;;;;3.12;1.00;;;;;;;29.00;40.92;100213.30;1674322;84;21199;-69
2021/06/15 12:49:59;;;;;;;3.20;1.00;;;;;;;28.87;41.06;100215.91;1700536;84;21245;-70
2021/06/15 12:52:37;;;;;;;2.10;1.25;;;;;;;28.79;40.73;100225.80;1700995;84;21229;-69
2021/06/15 12:55:13;;;;;;;2.75;1.50;;;;;;;28.68;41.10;100220.05;1701769;84;21226;-68
2021/06/15 12:57:59;;;;;;;3.05;1.12;;;;;;;28.60;40.90;100225.88;1700882;84;21584;-67
2021/06/15 13:00:35;;;;;;;7.17;1.45;;;;;;;28.51;41.05;100221.47;1700815;84;21227;-68
2021/06/15 13:03:12;;;;;;;3.42;1.47;;;;;;;28.46;41.16;100216.55;1673782;84;21492;-69
2021/06/15 13:05:45;;;;;;;3.95;1.95;;;;;;;28.41;41.73;100204.38;1701637;84;22008;-69
2021/06/15 13:08:18;;;;;;;;;;;;;;;28.41;41.73;100204.38;1703232;84;21219;-69
2021/06/15 13:15:09;;;;;;;2.77;1.30;;;;;;;28.25;41.65;100194.52;1702026;84;21150;-67
2021/06/15 13:17:43;;;;;;;6.03;4.33;;;;;;;28.25;41.65;100194.52;1700999;84;21270;-68
2021/06/15 13:20:17;;;;;;;5.03;1.65;;;;;;;28.26;41.51;100202.33;1698687;84;21203;-67
2021/06/15 13:22:51;;;;;;;11.75;3.20;;;;;;;28.25;41.20;100195.86;1673851;84;22142;-68
2021/06/15 13:25:32;;;;;;;6.83;3.35;;;;;;;28.25;41.64;100189.13;1694725;84;21211;-67
2021/06/15 13:28:12;;;;;;;4.90;2.40;;;;;;;28.26;42.48;100184.02;1693522;84;21392;-65
2021/06/15 13:30:45;;;;;;;4.90;1.67;;;;;;;28.27;42.88;100181.61;1694635;84;21220;-69
2021/06/15 13:33:20;;;;;;;2.72;1.20;;;;;;;28.25;42.59;100186.44;1693669;84;21528;-70
2021/06/15 13:35:59;;;;;;;5.78;1.90;;;;;;;28.18;42.67;100181.79;1693285;84;21263;-70
2021/06/15 13:38:30;;;;;;;3.83;1.20;;;;;;;28.16;43.07;100184.71;1693314;84;21234;-68
2021/06/15 13:41:05;;;;;;;2.98;1.30;;;;;;;28.14;43.66;100176.61;1694527;84;21304;-68
2021/06/15 13:43:43;;;;;;;2.10;1.20;;;;;;;28.14;44.15;100175.27;1693585;84;21226;-68
2021/06/15 13:50:26;;;;;;;6.65;1.62;;;;;;;28.20;45.40;100176.96;1694447;84;21151;-67
